sensor_id;sensor_type;location;lat;lon;timestamp;temperature;humidity
24326;DHT22;12448;45.532;5.290;2024-02-23T00:02:18;9.00;99.90
24326;DHT22;12448;45.532;5.290;2024-02-23T00:04:44;9.10;99.90
24326;DHT22;12448;45.532;5.290;2024-02-23T00:07:10;9.20;99.90
24326;DHT22;12448;45.532;5.290;2024-02-23T00:09:36;9.20;99.90
24326;DHT22;12448;45.532;5.290;2024-02-23T00:12:05;9.60;99.90
24326;DHT22;12448;45.532;5.290;2024-02-23T00:14:31;9.30;99.90
24326;DHT22;12448;45.532;5.290;2024-02-23T00:16:57;9.20;99.90
24326;DHT22;12448;45.532;5.290;2024-02-23T00:19:26;9.10;99.90
24326;DHT22;12448;45.532;5.290;2024-02-23T00:21:52;9.40;99.90
24326;DHT22;12448;45.532;5.290;2024-02-23T00:24:18;9.00;99.10
24326;DHT22;12448;45.532;5.290;2024-02-23T00:26:46;9.20;99.40
24326;DHT22;12448;45.532;5.290;2024-02-23T00:29:12;8.90;98.60
24326;DHT22;12448;45.532;5.290;2024-02-23T00:31:38;8.80;98.10
24326;DHT22;12448;45.532;5.290;2024-02-23T00:34:07;8.60;97.60
24326;DHT22;12448;45.532;5.290;2024-02-23T00:36:38;8.50;97.50
24326;DHT22;12448;45.532;5.290;2024-02-23T00:39:04;8.50;97.70
24326;DHT22;12448;45.532;5.290;2024-02-23T00:41:30;8.70;98.30
24326;DHT22;12448;45.532;5.290;2024-02-23T00:43:56;8.70;97.90
24326;DHT22;12448;45.532;5.290;2024-02-23T00:46:21;8.60;97.30
24326;DHT22;12448;45.532;5.290;2024-02-23T00:48:47;8.50;97.30
24326;DHT22;12448;45.532;5.290;2024-02-23T00:51:13;8.50;96.00
24326;DHT22;12448;45.532;5.290;2024-02-23T00:53:38;8.50;96.10
24326;DHT22;12448;45.532;5.290;2024-02-23T00:56:04;8.40;95.70
24326;DHT22;12448;45.532;5.290;2024-02-23T00:58:30;8.40;96.10
24326;DHT22;12448;45.532;5.290;2024-02-23T01:00:56;8.30;95.60
24326;DHT22;12448;45.532;5.290;2024-02-23T01:03:21;8.30;95.60
24326;DHT22;12448;45.532;5.290;2024-02-23T01:05:48;8.70;95.60
24326;DHT22;12448;45.532;5.290;2024-02-23T01:08:14;8.20;95.20
24326;DHT22;12448;45.532;5.290;2024-02-23T01:10:39;8.20;95.10
24326;DHT22;12448;45.532;5.290;2024-02-23T01:13:05;8.20;95.40
24326;DHT22;12448;45.532;5.290;2024-02-23T01:15:31;8.20;94.80
24326;DHT22;12448;45.532;5.290;2024-02-23T01:17:57;8.20;95.20
24326;DHT22;12448;45.532;5.290;2024-02-23T01:20:22;8.30;95.80
24326;DHT22;12448;45.532;5.290;2024-02-23T01:22:48;8.30;96.20
24326;DHT22;12448;45.532;5.290;2024-02-23T01:25:14;8.40;96.20
24326;DHT22;12448;45.532;5.290;2024-02-23T01:27:41;8.50;96.90
24326;DHT22;12448;45.532;5.290;2024-02-23T01:30:07;8.60;97.30
24326;DHT22;12448;45.532;5.290;2024-02-23T01:32:33;8.70;97.70
24326;DHT22;12448;45.532;5.290;2024-02-23T01:34:59;8.70;98.10
24326;DHT22;12448;45.532;5.290;2024-02-23T01:37:26;8.70;98.40
24326;DHT22;12448;45.532;5.290;2024-02-23T01:39:51;9.00;98.70
24326;DHT22;12448;45.532;5.290;2024-02-23T01:42:17;8.90;98.60
24326;DHT22;12448;45.532;5.290;2024-02-23T01:44:43;8.80;98.30
24326;DHT22;12448;45.532;5.290;2024-02-23T01:47:10;9.00;98.40
24326;DHT22;12448;45.532;5.290;2024-02-23T01:49:36;8.60;96.90
24326;DHT22;12448;45.532;5.290;2024-02-23T01:52:02;8.60;97.10
24326;DHT22;12448;45.532;5.290;2024-02-23T01:54:29;8.60;96.90
24326;DHT22;12448;45.532;5.290;2024-02-23T01:56:58;8.90;96.80
24326;DHT22;12448;45.532;5.290;2024-02-23T01:59:25;8.60;96.90
24326;DHT22;12448;45.532;5.290;2024-02-23T02:01:51;8.50;96.50
24326;DHT22;12448;45.532;5.290;2024-02-23T02:04:17;8.40;96.50
24326;DHT22;12448;45.532;5.290;2024-02-23T02:06:45;8.50;96.60
24326;DHT22;12448;45.532;5.290;2024-02-23T02:09:12;8.30;96.50
24326;DHT22;12448;45.532;5.290;2024-02-23T02:11:47;8.20;96.40
24326;DHT22;12448;45.532;5.290;2024-02-23T02:14:14;8.50;96.30
24326;DHT22;12448;45.532;5.290;2024-02-23T02:16:40;8.20;96.40
24326;DHT22;12448;45.532;5.290;2024-02-23T02:19:06;8.70;96.40
24326;DHT22;12448;45.532;5.290;2024-02-23T02:21:33;8.20;96.20
24326;DHT22;12448;45.532;5.290;2024-02-23T02:23:59;8.20;96.20
24326;DHT22;12448;45.532;5.290;2024-02-23T02:26:24;8.10;95.90
24326;DHT22;12448;45.532;5.290;2024-02-23T02:28:50;8.10;95.80
24326;DHT22;12448;45.532;5.290;2024-02-23T02:31:16;8.20;95.70
24326;DHT22;12448;45.532;5.290;2024-02-23T02:33:41;8.00;95.40
24326;DHT22;12448;45.532;5.290;2024-02-23T02:36:07;8.10;95.70
24326;DHT22;12448;45.532;5.290;2024-02-23T02:38:33;8.00;95.90
24326;DHT22;12448;45.532;5.290;2024-02-23T02:41:02;8.00;95.80
24326;DHT22;12448;45.532;5.290;2024-02-23T02:43:27;8.00;95.90
24326;DHT22;12448;45.532;5.290;2024-02-23T02:45:53;8.00;96.00
24326;DHT22;12448;45.532;5.290;2024-02-23T02:48:19;8.00;96.20
24326;DHT22;12448;45.532;5.290;2024-02-23T02:50:44;8.00;96.50
24326;DHT22;12448;45.532;5.290;2024-02-23T02:53:10;8.00;96.60
24326;DHT22;12448;45.532;5.290;2024-02-23T02:55:37;8.00;96.70
24326;DHT22;12448;45.532;5.290;2024-02-23T02:58:02;8.40;96.90
24326;DHT22;12448;45.532;5.290;2024-02-23T03:00:28;8.00;96.80
24326;DHT22;12448;45.532;5.290;2024-02-23T03:02:53;8.30;97.00
24326;DHT22;12448;45.532;5.290;2024-02-23T03:05:19;8.10;96.80
24326;DHT22;12448;45.532;5.290;2024-02-23T03:07:45;7.90;96.70
24326;DHT22;12448;45.532;5.290;2024-02-23T03:10:10;7.90;96.70
24326;DHT22;12448;45.532;5.290;2024-02-23T03:12:36;7.90;96.40
24326;DHT22;12448;45.532;5.290;2024-02-23T03:15:02;8.00;96.20
24326;DHT22;12448;45.532;5.290;2024-02-23T03:17:28;7.80;96.30
24326;DHT22;12448;45.532;5.290;2024-02-23T03:19:54;8.20;96.70
24326;DHT22;12448;45.532;5.290;2024-02-23T03:22:20;7.80;96.90
24326;DHT22;12448;45.532;5.290;2024-02-23T03:24:45;7.80;97.20
24326;DHT22;12448;45.532;5.290;2024-02-23T03:27:11;7.70;97.40
24326;DHT22;12448;45.532;5.290;2024-02-23T03:29:38;7.70;97.50
24326;DHT22;12448;45.532;5.290;2024-02-23T03:32:04;7.70;97.70
24326;DHT22;12448;45.532;5.290;2024-02-23T03:34:29;7.60;97.90
24326;DHT22;12448;45.532;5.290;2024-02-23T03:36:55;7.70;98.20
24326;DHT22;12448;45.532;5.290;2024-02-23T03:39:21;7.60;98.40
24326;DHT22;12448;45.532;5.290;2024-02-23T03:41:46;7.50;98.50
24326;DHT22;12448;45.532;5.290;2024-02-23T03:44:12;7.60;98.50
24326;DHT22;12448;45.532;5.290;2024-02-23T03:46:38;7.70;98.40
24326;DHT22;12448;45.532;5.290;2024-02-23T03:49:03;7.60;98.30
24326;DHT22;12448;45.532;5.290;2024-02-23T03:51:29;7.60;98.20
24326;DHT22;12448;45.532;5.290;2024-02-23T03:53:54;7.60;98.10
24326;DHT22;12448;45.532;5.290;2024-02-23T03:56:20;7.60;98.00
24326;DHT22;12448;45.532;5.290;2024-02-23T03:58:46;7.60;98.10
24326;DHT22;12448;45.532;5.290;2024-02-23T04:01:11;7.60;98.20
24326;DHT22;12448;45.532;5.290;2024-02-23T04:03:37;7.70;98.20
24326;DHT22;12448;45.532;5.290;2024-02-23T04:06:04;7.50;98.20
24326;DHT22;12448;45.532;5.290;2024-02-23T04:08:30;7.50;98.20
24326;DHT22;12448;45.532;5.290;2024-02-23T04:10:56;7.50;98.30
24326;DHT22;12448;45.532;5.290;2024-02-23T04:13:22;7.60;98.20
24326;DHT22;12448;45.532;5.290;2024-02-23T04:15:48;7.90;98.40
24326;DHT22;12448;45.532;5.290;2024-02-23T04:18:14;7.90;98.50
24326;DHT22;12448;45.532;5.290;2024-02-23T04:20:39;7.50;98.00
24326;DHT22;12448;45.532;5.290;2024-02-23T04:23:05;7.30;97.60
24326;DHT22;12448;45.532;5.290;2024-02-23T04:25:30;7.80;97.80
24326;DHT22;12448;45.532;5.290;2024-02-23T04:27:56;7.20;97.50
24326;DHT22;12448;45.532;5.290;2024-02-23T04:30:22;7.20;97.80
24326;DHT22;12448;45.532;5.290;2024-02-23T04:32:47;7.20;97.80
24326;DHT22;12448;45.532;5.290;2024-02-23T04:35:13;7.30;97.60
24326;DHT22;12448;45.532;5.290;2024-02-23T04:37:39;7.30;97.60
24326;DHT22;12448;45.532;5.290;2024-02-23T04:40:05;7.30;97.40
24326;DHT22;12448;45.532;5.290;2024-02-23T04:42:32;7.20;96.60
24326;DHT22;12448;45.532;5.290;2024-02-23T04:44:57;7.10;97.10
24326;DHT22;12448;45.532;5.290;2024-02-23T04:47:23;7.10;97.10
24326;DHT22;12448;45.532;5.290;2024-02-23T04:49:48;7.40;97.50
24326;DHT22;12448;45.532;5.290;2024-02-23T04:52:15;7.20;97.60
24326;DHT22;12448;45.532;5.290;2024-02-23T04:54:40;7.30;97.90
24326;DHT22;12448;45.532;5.290;2024-02-23T04:57:06;7.10;97.80
24326;DHT22;12448;45.532;5.290;2024-02-23T04:59:31;7.00;97.60
24326;DHT22;12448;45.532;5.290;2024-02-23T05:01:58;7.00;97.70
24326;DHT22;12448;45.532;5.290;2024-02-23T05:04:24;7.00;97.70
24326;DHT22;12448;45.532;5.290;2024-02-23T05:06:52;7.60;98.10
24326;DHT22;12448;45.532;5.290;2024-02-23T05:09:17;6.90;97.40
24326;DHT22;12448;45.532;5.290;2024-02-23T05:11:43;7.20;97.50
24326;DHT22;12448;45.532;5.290;2024-02-23T05:14:11;6.70;96.40
24326;DHT22;12448;45.532;5.290;2024-02-23T05:16:36;6.50;96.70
24326;DHT22;12448;45.532;5.290;2024-02-23T05:19:02;6.40;96.90
24326;DHT22;12448;45.532;5.290;2024-02-23T05:21:28;6.40;96.90
24326;DHT22;12448;45.532;5.290;2024-02-23T05:23:53;6.30;97.20
24326;DHT22;12448;45.532;5.290;2024-02-23T05:26:19;6.00;97.40
24326;DHT22;12448;45.532;5.290;2024-02-23T05:28:45;5.90;97.50
24326;DHT22;12448;45.532;5.290;2024-02-23T05:31:11;6.00;98.20
24326;DHT22;12448;45.532;5.290;2024-02-23T05:33:37;6.10;98.10
24326;DHT22;12448;45.532;5.290;2024-02-23T05:36:04;6.20;98.20
24326;DHT22;12448;45.532;5.290;2024-02-23T05:38:30;6.20;97.70
24326;DHT22;12448;45.532;5.290;2024-02-23T05:40:56;6.30;98.00
24326;DHT22;12448;45.532;5.290;2024-02-23T05:43:22;6.30;97.90
24326;DHT22;12448;45.532;5.290;2024-02-23T05:45:48;6.20;97.10
24326;DHT22;12448;45.532;5.290;2024-02-23T05:48:13;6.10;97.50
24326;DHT22;12448;45.532;5.290;2024-02-23T05:50:39;6.20;98.00
24326;DHT22;12448;45.532;5.290;2024-02-23T05:53:04;6.80;98.30
24326;DHT22;12448;45.532;5.290;2024-02-23T05:55:30;6.30;98.20
24326;DHT22;12448;45.532;5.290;2024-02-23T05:57:56;7.00;98.40
24326;DHT22;12448;45.532;5.290;2024-02-23T06:00:21;7.00;98.30
24326;DHT22;12448;45.532;5.290;2024-02-23T06:02:47;6.40;98.30
24326;DHT22;12448;45.532;5.290;2024-02-23T06:05:13;6.90;98.40
24326;DHT22;12448;45.532;5.290;2024-02-23T06:07:39;6.70;98.10
24326;DHT22;12448;45.532;5.290;2024-02-23T06:10:06;6.40;98.00
24326;DHT22;12448;45.532;5.290;2024-02-23T06:12:31;6.40;97.90
24326;DHT22;12448;45.532;5.290;2024-02-23T06:14:57;7.00;98.30
24326;DHT22;12448;45.532;5.290;2024-02-23T06:17:24;6.40;98.20
24326;DHT22;12448;45.532;5.290;2024-02-23T06:19:49;6.50;98.20
24326;DHT22;12448;45.532;5.290;2024-02-23T06:22:16;7.00;98.40
24326;DHT22;12448;45.532;5.290;2024-02-23T06:24:46;6.50;98.30
24326;DHT22;12448;45.532;5.290;2024-02-23T06:27:12;6.50;98.40
24326;DHT22;12448;45.532;5.290;2024-02-23T06:29:38;6.50;98.50
24326;DHT22;12448;45.532;5.290;2024-02-23T06:32:04;6.50;98.50
24326;DHT22;12448;45.532;5.290;2024-02-23T06:34:29;6.50;98.90
24326;DHT22;12448;45.532;5.290;2024-02-23T06:36:55;6.50;98.50
24326;DHT22;12448;45.532;5.290;2024-02-23T06:39:21;6.60;98.50
24326;DHT22;12448;45.532;5.290;2024-02-23T06:41:46;6.60;98.50
24326;DHT22;12448;45.532;5.290;2024-02-23T06:44:12;6.50;98.50
24326;DHT22;12448;45.532;5.290;2024-02-23T06:46:38;6.50;98.20
24326;DHT22;12448;45.532;5.290;2024-02-23T06:49:03;7.10;98.40
24326;DHT22;12448;45.532;5.290;2024-02-23T06:51:33;6.80;98.40
24326;DHT22;12448;45.532;5.290;2024-02-23T06:53:59;6.70;98.20
24326;DHT22;12448;45.532;5.290;2024-02-23T06:56:24;6.50;97.90
24326;DHT22;12448;45.532;5.290;2024-02-23T06:58:50;6.50;97.40
24326;DHT22;12448;45.532;5.290;2024-02-23T07:01:15;7.00;97.70
24326;DHT22;12448;45.532;5.290;2024-02-23T07:03:41;6.90;97.30
24326;DHT22;12448;45.532;5.290;2024-02-23T07:06:08;6.80;97.40
24326;DHT22;12448;45.532;5.290;2024-02-23T07:08:37;6.90;97.60
24326;DHT22;12448;45.532;5.290;2024-02-23T07:11:03;6.60;97.60
24326;DHT22;12448;45.532;5.290;2024-02-23T07:13:29;6.60;97.70
24326;DHT22;12448;45.532;5.290;2024-02-23T07:15:55;6.70;97.80
24326;DHT22;12448;45.532;5.290;2024-02-23T07:18:21;6.80;97.80
24326;DHT22;12448;45.532;5.290;2024-02-23T07:20:47;6.80;97.80
24326;DHT22;12448;45.532;5.290;2024-02-23T07:23:13;6.90;97.90
24326;DHT22;12448;45.532;5.290;2024-02-23T07:25:41;7.10;97.90
24326;DHT22;12448;45.532;5.290;2024-02-23T07:28:07;7.70;98.00
24326;DHT22;12448;45.532;5.290;2024-02-23T07:30:33;7.20;97.80
24326;DHT22;12448;45.532;5.290;2024-02-23T07:33:00;7.20;97.90
24326;DHT22;12448;45.532;5.290;2024-02-23T07:35:26;7.30;97.90
24326;DHT22;12448;45.532;5.290;2024-02-23T07:37:52;7.70;98.00
24326;DHT22;12448;45.532;5.290;2024-02-23T07:40:17;7.50;97.90
24326;DHT22;12448;45.532;5.290;2024-02-23T07:42:43;7.50;97.90
24326;DHT22;12448;45.532;5.290;2024-02-23T07:45:09;8.00;97.80
24326;DHT22;12448;45.532;5.290;2024-02-23T07:47:35;7.60;97.60
24326;DHT22;12448;45.532;5.290;2024-02-23T07:50:01;7.60;97.50
24326;DHT22;12448;45.532;5.290;2024-02-23T07:52:26;8.20;97.70
24326;DHT22;12448;45.532;5.290;2024-02-23T07:54:52;7.60;97.50
24326;DHT22;12448;45.532;5.290;2024-02-23T07:57:19;7.60;97.70
24326;DHT22;12448;45.532;5.290;2024-02-23T07:59:45;7.60;97.70
24326;DHT22;12448;45.532;5.290;2024-02-23T08:02:10;7.60;97.60
24326;DHT22;12448;45.532;5.290;2024-02-23T08:04:36;7.80;97.80
24326;DHT22;12448;45.532;5.290;2024-02-23T08:07:03;7.50;97.60
24326;DHT22;12448;45.532;5.290;2024-02-23T08:09:29;7.70;97.70
24326;DHT22;12448;45.532;5.290;2024-02-23T08:11:55;7.70;97.80
24326;DHT22;12448;45.532;5.290;2024-02-23T08:14:20;7.70;97.80
24326;DHT22;12448;45.532;5.290;2024-02-23T08:16:46;7.80;97.80
24326;DHT22;12448;45.532;5.290;2024-02-23T08:19:11;8.40;97.80
24326;DHT22;12448;45.532;5.290;2024-02-23T08:21:37;7.90;97.60
24326;DHT22;12448;45.532;5.290;2024-02-23T08:24:03;8.20;97.60
24326;DHT22;12448;45.532;5.290;2024-02-23T08:26:29;7.90;97.50
24326;DHT22;12448;45.532;5.290;2024-02-23T08:28:54;8.00;97.50
24326;DHT22;12448;45.532;5.290;2024-02-23T08:31:20;8.40;97.60
24326;DHT22;12448;45.532;5.290;2024-02-23T08:33:46;8.10;97.40
24326;DHT22;12448;45.532;5.290;2024-02-23T08:36:12;8.20;97.40
24326;DHT22;12448;45.532;5.290;2024-02-23T08:38:37;8.20;97.40
24326;DHT22;12448;45.532;5.290;2024-02-23T08:41:03;8.30;97.40
24326;DHT22;12448;45.532;5.290;2024-02-23T08:43:29;8.30;97.00
24326;DHT22;12448;45.532;5.290;2024-02-23T08:45:54;8.30;97.00
24326;DHT22;12448;45.532;5.290;2024-02-23T08:48:20;8.40;96.90
24326;DHT22;12448;45.532;5.290;2024-02-23T08:50:46;8.80;97.10
24326;DHT22;12448;45.532;5.290;2024-02-23T08:53:11;8.50;96.90
24326;DHT22;12448;45.532;5.290;2024-02-23T08:55:37;8.50;96.70
24326;DHT22;12448;45.532;5.290;2024-02-23T08:58:02;8.90;96.90
24326;DHT22;12448;45.532;5.290;2024-02-23T09:00:28;8.60;96.90
24326;DHT22;12448;45.532;5.290;2024-02-23T09:02:54;8.60;96.90
24326;DHT22;12448;45.532;5.290;2024-02-23T09:05:20;8.60;96.90
24326;DHT22;12448;45.532;5.290;2024-02-23T09:07:46;8.70;96.80
24326;DHT22;12448;45.532;5.290;2024-02-23T09:10:12;8.60;96.60
24326;DHT22;12448;45.532;5.290;2024-02-23T09:12:37;8.70;96.60
24326;DHT22;12448;45.532;5.290;2024-02-23T09:15:04;9.00;96.60
24326;DHT22;12448;45.532;5.290;2024-02-23T09:17:30;8.20;96.40
24326;DHT22;12448;45.532;5.290;2024-02-23T09:19:56;8.80;96.50
24326;DHT22;12448;45.532;5.290;2024-02-23T09:22:21;8.80;96.50
24326;DHT22;12448;45.532;5.290;2024-02-23T09:24:48;9.10;96.50
24326;DHT22;12448;45.532;5.290;2024-02-23T09:27:13;9.20;96.60
24326;DHT22;12448;45.532;5.290;2024-02-23T09:29:41;8.90;96.60
24326;DHT22;12448;45.532;5.290;2024-02-23T09:32:07;9.00;96.60
24326;DHT22;12448;45.532;5.290;2024-02-23T09:34:33;9.00;96.40
24326;DHT22;12448;45.532;5.290;2024-02-23T09:36:59;9.20;96.30
24326;DHT22;12448;45.532;5.290;2024-02-23T09:39:24;9.20;96.30
24326;DHT22;12448;45.532;5.290;2024-02-23T09:41:54;9.20;96.20
24326;DHT22;12448;45.532;5.290;2024-02-23T09:44:20;9.30;96.00
24326;DHT22;12448;45.532;5.290;2024-02-23T09:46:48;9.50;96.00
24326;DHT22;12448;45.532;5.290;2024-02-23T09:49:15;9.10;95.80
24326;DHT22;12448;45.532;5.290;2024-02-23T09:51:41;9.10;95.70
24326;DHT22;12448;45.532;5.290;2024-02-23T09:54:07;9.20;95.40
24326;DHT22;12448;45.532;5.290;2024-02-23T09:56:33;9.20;95.50
24326;DHT22;12448;45.532;5.290;2024-02-23T09:59:03;9.20;95.40
24326;DHT22;12448;45.532;5.290;2024-02-23T10:01:30;9.60;95.50
24326;DHT22;12448;45.532;5.290;2024-02-23T10:04:00;9.20;95.20
24326;DHT22;12448;45.532;5.290;2024-02-23T10:06:26;9.30;95.10
24326;DHT22;12448;45.532;5.290;2024-02-23T10:08:53;9.30;95.00
24326;DHT22;12448;45.532;5.290;2024-02-23T10:11:23;9.20;95.10
24326;DHT22;12448;45.532;5.290;2024-02-23T10:13:49;9.20;95.20
24326;DHT22;12448;45.532;5.290;2024-02-23T10:16:16;9.30;95.10
24326;DHT22;12448;45.532;5.290;2024-02-23T10:18:42;9.40;95.00
24326;DHT22;12448;45.532;5.290;2024-02-23T10:21:08;9.50;95.00
24326;DHT22;12448;45.532;5.290;2024-02-23T10:23:33;9.50;94.90
24326;DHT22;12448;45.532;5.290;2024-02-23T10:25:59;10.00;95.00
24326;DHT22;12448;45.532;5.290;2024-02-23T10:28:25;9.50;94.70
24326;DHT22;12448;45.532;5.290;2024-02-23T10:30:50;9.60;94.70
24326;DHT22;12448;45.532;5.290;2024-02-23T10:33:21;9.60;94.60
24326;DHT22;12448;45.532;5.290;2024-02-23T10:35:49;10.00;94.60
24326;DHT22;12448;45.532;5.290;2024-02-23T10:38:18;9.60;94.10
24326;DHT22;12448;45.532;5.290;2024-02-23T10:40:45;9.60;94.20
24326;DHT22;12448;45.532;5.290;2024-02-23T10:43:16;9.70;94.30
24326;DHT22;12448;45.532;5.290;2024-02-23T10:45:43;9.60;94.30
24326;DHT22;12448;45.532;5.290;2024-02-23T10:48:10;9.80;93.90
24326;DHT22;12448;45.532;5.290;2024-02-23T10:50:37;9.80;93.50
24326;DHT22;12448;45.532;5.290;2024-02-23T10:53:04;10.10;93.60
24326;DHT22;12448;45.532;5.290;2024-02-23T10:55:33;9.90;93.40
24326;DHT22;12448;45.532;5.290;2024-02-23T10:58:02;9.90;93.10
24326;DHT22;12448;45.532;5.290;2024-02-23T11:00:29;9.90;92.90
24326;DHT22;12448;45.532;5.290;2024-02-23T11:02:55;9.90;92.70
24326;DHT22;12448;45.532;5.290;2024-02-23T11:05:21;10.00;92.80
24326;DHT22;12448;45.532;5.290;2024-02-23T11:07:48;10.10;92.90
24326;DHT22;12448;45.532;5.290;2024-02-23T11:10:17;10.10;92.70
24326;DHT22;12448;45.532;5.290;2024-02-23T11:12:44;10.30;92.70
24326;DHT22;12448;45.532;5.290;2024-02-23T11:15:29;10.20;92.80
24326;DHT22;12448;45.532;5.290;2024-02-23T11:17:55;10.20;92.30
24326;DHT22;12448;45.532;5.290;2024-02-23T11:20:21;10.20;92.30
24326;DHT22;12448;45.532;5.290;2024-02-23T11:22:53;10.30;92.40
24326;DHT22;12448;45.532;5.290;2024-02-23T11:25:19;10.40;92.30
24326;DHT22;12448;45.532;5.290;2024-02-23T11:27:49;10.40;92.20
24326;DHT22;12448;45.532;5.290;2024-02-23T11:30:17;10.40;92.20
24326;DHT22;12448;45.532;5.290;2024-02-23T11:32:48;10.50;92.10
24326;DHT22;12448;45.532;5.290;2024-02-23T11:35:16;10.70;92.20
24326;DHT22;12448;45.532;5.290;2024-02-23T11:37:54;10.50;91.60
24326;DHT22;12448;45.532;5.290;2024-02-23T11:40:30;10.60;91.20
24326;DHT22;12448;45.532;5.290;2024-02-23T11:42:56;10.50;91.10
24326;DHT22;12448;45.532;5.290;2024-02-23T11:45:24;10.60;91.50
24326;DHT22;12448;45.532;5.290;2024-02-23T11:47:49;10.60;91.30
24326;DHT22;12448;45.532;5.290;2024-02-23T11:50:15;10.60;91.40
24326;DHT22;12448;45.532;5.290;2024-02-23T11:52:42;10.60;91.40
24326;DHT22;12448;45.532;5.290;2024-02-23T11:55:08;10.70;91.20
24326;DHT22;12448;45.532;5.290;2024-02-23T11:57:35;10.70;91.20
24326;DHT22;12448;45.532;5.290;2024-02-23T12:00:05;10.80;91.00
24326;DHT22;12448;45.532;5.290;2024-02-23T12:02:35;10.80;90.90
24326;DHT22;12448;45.532;5.290;2024-02-23T12:05:01;10.80;90.70
24326;DHT22;12448;45.532;5.290;2024-02-23T12:07:31;10.70;90.40
24326;DHT22;12448;45.532;5.290;2024-02-23T12:09:58;10.70;90.50
24326;DHT22;12448;45.532;5.290;2024-02-23T12:12:25;10.70;90.60
24326;DHT22;12448;45.532;5.290;2024-02-23T12:14:51;10.70;90.70
24326;DHT22;12448;45.532;5.290;2024-02-23T12:17:17;10.90;90.90
24326;DHT22;12448;45.532;5.290;2024-02-23T12:19:43;10.60;91.00
24326;DHT22;12448;45.532;5.290;2024-02-23T12:22:12;10.60;91.10
24326;DHT22;12448;45.532;5.290;2024-02-23T12:24:40;10.60;91.20
24326;DHT22;12448;45.532;5.290;2024-02-23T12:27:07;10.60;91.10
24326;DHT22;12448;45.532;5.290;2024-02-23T12:29:32;10.60;91.20
24326;DHT22;12448;45.532;5.290;2024-02-23T12:32:07;10.60;91.10
24326;DHT22;12448;45.532;5.290;2024-02-23T12:34:33;10.60;90.80
24326;DHT22;12448;45.532;5.290;2024-02-23T12:37:02;10.60;90.90
24326;DHT22;12448;45.532;5.290;2024-02-23T12:39:28;10.60;90.90
24326;DHT22;12448;45.532;5.290;2024-02-23T12:41:54;10.60;90.50
24326;DHT22;12448;45.532;5.290;2024-02-23T12:44:22;10.60;90.60
24326;DHT22;12448;45.532;5.290;2024-02-23T12:46:48;10.70;90.50
24326;DHT22;12448;45.532;5.290;2024-02-23T12:49:14;10.70;90.30
24326;DHT22;12448;45.532;5.290;2024-02-23T12:51:41;10.60;90.30
24326;DHT22;12448;45.532;5.290;2024-02-23T12:54:07;10.60;90.80
24326;DHT22;12448;45.532;5.290;2024-02-23T12:56:33;10.70;90.50
24326;DHT22;12448;45.532;5.290;2024-02-23T12:58:58;10.70;90.50
24326;DHT22;12448;45.532;5.290;2024-02-23T13:01:24;10.70;90.20
24326;DHT22;12448;45.532;5.290;2024-02-23T13:03:50;10.80;90.20
24326;DHT22;12448;45.532;5.290;2024-02-23T13:06:16;10.80;90.10
24326;DHT22;12448;45.532;5.290;2024-02-23T13:08:41;10.90;90.30
24326;DHT22;12448;45.532;5.290;2024-02-23T13:11:08;10.90;90.20
24326;DHT22;12448;45.532;5.290;2024-02-23T13:13:33;10.90;90.10
24326;DHT22;12448;45.532;5.290;2024-02-23T13:15:59;11.20;90.10
24326;DHT22;12448;45.532;5.290;2024-02-23T13:18:25;11.00;89.20
24326;DHT22;12448;45.532;5.290;2024-02-23T13:20:51;10.80;89.80
24326;DHT22;12448;45.532;5.290;2024-02-23T13:23:17;10.80;90.10
24326;DHT22;12448;45.532;5.290;2024-02-23T13:25:43;10.80;90.30
24326;DHT22;12448;45.532;5.290;2024-02-23T13:28:09;10.80;90.10
24326;DHT22;12448;45.532;5.290;2024-02-23T13:30:36;10.80;90.00
24326;DHT22;12448;45.532;5.290;2024-02-23T13:33:03;10.70;90.10
24326;DHT22;12448;45.532;5.290;2024-02-23T13:35:29;10.70;90.30
24326;DHT22;12448;45.532;5.290;2024-02-23T13:37:55;10.70;90.10
24326;DHT22;12448;45.532;5.290;2024-02-23T13:40:20;10.60;90.00
24326;DHT22;12448;45.532;5.290;2024-02-23T13:42:46;10.60;89.70
24326;DHT22;12448;45.532;5.290;2024-02-23T13:45:15;10.50;89.80
24326;DHT22;12448;45.532;5.290;2024-02-23T13:47:42;10.50;89.70
24326;DHT22;12448;45.532;5.290;2024-02-23T13:50:12;10.50;89.50
24326;DHT22;12448;45.532;5.290;2024-02-23T13:52:39;10.40;90.00
24326;DHT22;12448;45.532;5.290;2024-02-23T13:55:05;10.40;90.10
24326;DHT22;12448;45.532;5.290;2024-02-23T13:57:30;10.40;90.00
24326;DHT22;12448;45.532;5.290;2024-02-23T13:59:56;10.40;89.70
24326;DHT22;12448;45.532;5.290;2024-02-23T14:02:26;10.40;89.70
24326;DHT22;12448;45.532;5.290;2024-02-23T14:04:52;10.40;89.60
24326;DHT22;12448;45.532;5.290;2024-02-23T14:07:18;10.40;89.50
24326;DHT22;12448;45.532;5.290;2024-02-23T14:09:44;10.60;89.80
24326;DHT22;12448;45.532;5.290;2024-02-23T14:12:09;10.40;89.80
24326;DHT22;12448;45.532;5.290;2024-02-23T14:14:35;10.20;89.80
24326;DHT22;12448;45.532;5.290;2024-02-23T14:17:01;10.40;90.10
24326;DHT22;12448;45.532;5.290;2024-02-23T14:19:26;10.40;90.00
24326;DHT22;12448;45.532;5.290;2024-02-23T14:21:52;10.40;90.10
24326;DHT22;12448;45.532;5.290;2024-02-23T14:24:18;10.40;90.10
24326;DHT22;12448;45.532;5.290;2024-02-23T14:26:43;10.40;90.20
24326;DHT22;12448;45.532;5.290;2024-02-23T14:29:09;10.40;90.20
24326;DHT22;12448;45.532;5.290;2024-02-23T14:31:35;10.40;90.10
24326;DHT22;12448;45.532;5.290;2024-02-23T14:34:01;10.50;90.10
24326;DHT22;12448;45.532;5.290;2024-02-23T14:36:27;10.40;90.30
24326;DHT22;12448;45.532;5.290;2024-02-23T14:38:52;10.40;90.20
24326;DHT22;12448;45.532;5.290;2024-02-23T14:41:18;10.70;90.20
24326;DHT22;12448;45.532;5.290;2024-02-23T14:43:44;10.30;90.10
24326;DHT22;12448;45.532;5.290;2024-02-23T14:46:10;10.30;89.60
24326;DHT22;12448;45.532;5.290;2024-02-23T14:48:35;10.20;89.60
24326;DHT22;12448;45.532;5.290;2024-02-23T14:51:01;10.30;89.60
24326;DHT22;12448;45.532;5.290;2024-02-23T14:53:29;10.20;89.50
24326;DHT22;12448;45.532;5.290;2024-02-23T14:55:55;10.20;89.80
24326;DHT22;12448;45.532;5.290;2024-02-23T14:58:20;10.20;90.00
24326;DHT22;12448;45.532;5.290;2024-02-23T15:00:46;10.20;90.20
24326;DHT22;12448;45.532;5.290;2024-02-23T15:03:13;10.20;90.30
24326;DHT22;12448;45.532;5.290;2024-02-23T15:05:39;10.20;90.20
24326;DHT22;12448;45.532;5.290;2024-02-23T15:08:06;10.20;90.30
24326;DHT22;12448;45.532;5.290;2024-02-23T15:10:32;10.10;90.40
24326;DHT22;12448;45.532;5.290;2024-02-23T15:12:58;10.10;90.50
24326;DHT22;12448;45.532;5.290;2024-02-23T15:15:24;10.10;90.50
24326;DHT22;12448;45.532;5.290;2024-02-23T15:17:50;10.00;90.60
24326;DHT22;12448;45.532;5.290;2024-02-23T15:20:15;10.10;90.80
24326;DHT22;12448;45.532;5.290;2024-02-23T15:22:41;10.00;90.90
24326;DHT22;12448;45.532;5.290;2024-02-23T15:25:08;10.00;90.80
24326;DHT22;12448;45.532;5.290;2024-02-23T15:27:35;10.00;91.40
24326;DHT22;12448;45.532;5.290;2024-02-23T15:30:01;9.90;91.30
24326;DHT22;12448;45.532;5.290;2024-02-23T15:32:27;9.90;91.50
24326;DHT22;12448;45.532;5.290;2024-02-23T15:34:52;9.90;91.90
24326;DHT22;12448;45.532;5.290;2024-02-23T15:37:18;9.80;92.20